sensor_id;sensor_type;location;lat;lon;timestamp;pressure;altitude;pressure_sealevel;temperature;humidity
33075;BME280;19433;51.292;6.868;2022-11-13T00:02:02;101514.53;;;8.84;79.68
33075;BME280;19433;51.292;6.868;2022-11-13T00:04:28;101504.50;;;8.75;79.92
33075;BME280;19433;51.292;6.868;2022-11-13T00:06:53;101496.91;;;8.69;80.46
33075;BME280;19433;51.292;6.868;2022-11-13T00:09:18;101502.91;;;8.64;81.06
33075;BME280;19433;51.292;6.868;2022-11-13T00:11:43;101492.91;;;8.55;81.25
33075;BME280;19433;51.292;6.868;2022-11-13T00:14:09;101497.78;;;8.69;80.19
33075;BME280;19433;51.292;6.868;2022-11-13T00:16:34;101476.00;;;8.50;80.69
33075;BME280;19433;51.292;6.868;2022-11-13T00:18:59;101496.00;;;8.60;80.49
33075;BME280;19433;51.292;6.868;2022-11-13T00:21:25;101490.16;;;8.55;79.99
33075;BME280;19433;51.292;6.868;2022-11-13T00:23:54;101486.16;;;8.50;80.47
33075;BME280;19433;51.292;6.868;2022-11-13T00:26:23;101488.75;;;8.51;79.69
33075;BME280;19433;51.292;6.868;2022-11-13T00:28:53;101478.22;;;8.46;80.02
33075;BME280;19433;51.292;6.868;2022-11-13T00:31:19;101478.41;;;8.45;80.17
33075;BME280;19433;51.292;6.868;2022-11-13T00:33:44;101485.47;;;8.48;79.95
33075;BME280;19433;51.292;6.868;2022-11-13T00:36:14;101478.41;;;8.45;80.02
33075;BME280;19433;51.292;6.868;2022-11-13T00:38:41;101476.13;;;8.40;80.38
33075;BME280;19433;51.292;6.868;2022-11-13T00:41:06;101477.50;;;8.36;80.53
33075;BME280;19433;51.292;6.868;2022-11-13T00:43:31;101472.34;;;8.41;79.80
33075;BME280;19433;51.292;6.868;2022-11-13T00:45:57;101463.16;;;8.25;79.95
33075;BME280;19433;51.292;6.868;2022-11-13T00:48:22;101471.13;;;8.36;79.12
33075;BME280;19433;51.292;6.868;2022-11-13T00:50:48;101471.31;;;8.42;79.22
33075;BME280;19433;51.292;6.868;2022-11-13T00:53:14;101469.28;;;8.44;78.70
33075;BME280;19433;51.292;6.868;2022-11-13T00:55:41;101468.94;;;8.48;78.72
33075;BME280;19433;51.292;6.868;2022-11-13T00:58:07;101471.16;;;8.44;78.84
33075;BME280;19433;51.292;6.868;2022-11-13T01:00:32;101471.56;;;8.23;80.04
33075;BME280;19433;51.292;6.868;2022-11-13T01:02:58;101462.03;;;8.35;79.61
33075;BME280;19433;51.292;6.868;2022-11-13T01:05:25;101467.59;;;8.26;80.17
33075;BME280;19433;51.292;6.868;2022-11-13T01:07:50;101476.81;;;8.34;80.75
33075;BME280;19433;51.292;6.868;2022-11-13T01:10:16;101460.75;;;8.30;80.66
33075;BME280;19433;51.292;6.868;2022-11-13T01:12:41;101465.84;;;8.17;81.62
33075;BME280;19433;51.292;6.868;2022-11-13T01:15:07;101464.59;;;8.11;81.59
33075;BME280;19433;51.292;6.868;2022-11-13T01:17:33;101436.03;;;8.04;80.85
33075;BME280;19433;51.292;6.868;2022-11-13T01:19:58;101458.22;;;8.02;80.76
33075;BME280;19433;51.292;6.868;2022-11-13T01:22:23;101446.66;;;7.99;80.43
33075;BME280;19433;51.292;6.868;2022-11-13T01:24:49;101449.78;;;8.04;80.03
33075;BME280;19433;51.292;6.868;2022-11-13T01:27:14;101448.38;;;8.00;79.98
33075;BME280;19433;51.292;6.868;2022-11-13T01:29:41;101438.25;;;8.00;79.89
33075;BME280;19433;51.292;6.868;2022-11-13T01:32:06;101447.84;;;7.96;79.82
33075;BME280;19433;51.292;6.868;2022-11-13T01:34:32;101436.19;;;8.02;79.91
33075;BME280;19433;51.292;6.868;2022-11-13T01:36:58;101436.50;;;7.91;80.78
33075;BME280;19433;51.292;6.868;2022-11-13T01:39:24;101420.22;;;7.72;81.06
33075;BME280;19433;51.292;6.868;2022-11-13T01:41:49;101434.66;;;7.74;80.88
33075;BME280;19433;51.292;6.868;2022-11-13T01:44:16;101430.38;;;7.80;80.39
33075;BME280;19433;51.292;6.868;2022-11-13T01:46:53;101421.09;;;7.81;79.86
33075;BME280;19433;51.292;6.868;2022-11-13T01:49:27;101419.59;;;7.86;79.30
33075;BME280;19433;51.292;6.868;2022-11-13T01:51:57;101424.06;;;7.79;80.15
33075;BME280;19433;51.292;6.868;2022-11-13T01:54:26;101415.59;;;7.81;80.50
33075;BME280;19433;51.292;6.868;2022-11-13T01:56:52;101418.56;;;7.87;80.76
33075;BME280;19433;51.292;6.868;2022-11-13T01:59:22;101414.56;;;7.82;80.74
33075;BME280;19433;51.292;6.868;2022-11-13T02:01:48;101405.38;;;7.91;80.06
33075;BME280;19433;51.292;6.868;2022-11-13T02:04:13;101391.53;;;7.83;80.40
33075;BME280;19433;51.292;6.868;2022-11-13T02:06:48;101409.63;;;7.85;80.64
33075;BME280;19433;51.292;6.868;2022-11-13T02:09:17;101411.66;;;7.83;80.42
33075;BME280;19433;51.292;6.868;2022-11-13T02:11:43;101396.53;;;7.79;80.57
33075;BME280;19433;51.292;6.868;2022-11-13T02:14:10;101393.25;;;7.75;80.34
33075;BME280;19433;51.292;6.868;2022-11-13T02:16:38;101402.03;;;7.79;80.38
33075;BME280;19433;51.292;6.868;2022-11-13T02:19:11;101406.63;;;7.70;81.05
33075;BME280;19433;51.292;6.868;2022-11-13T02:24:39;101403.88;;;7.70;79.40
33075;BME280;19433;51.292;6.868;2022-11-13T02:27:07;101384.03;;;7.59;79.39
33075;BME280;19433;51.292;6.868;2022-11-13T02:29:34;101403.72;;;7.72;78.90
33075;BME280;19433;51.292;6.868;2022-11-13T02:32:00;101401.09;;;7.62;78.48
33075;BME280;19433;51.292;6.868;2022-11-13T02:34:26;101400.97;;;7.72;77.63
33075;BME280;19433;51.292;6.868;2022-11-13T02:36:51;101396.88;;;7.84;76.55
33075;BME280;19433;51.292;6.868;2022-11-13T02:39:16;101398.13;;;7.90;75.73
33075;BME280;19433;51.292;6.868;2022-11-13T02:41:41;101394.69;;;7.96;75.28
33075;BME280;19433;51.292;6.868;2022-11-13T02:44:07;101389.41;;;8.02;74.24
33075;BME280;19433;51.292;6.868;2022-11-13T02:46:32;101394.31;;;7.83;75.30
33075;BME280;19433;51.292;6.868;2022-11-13T02:48:58;101389.34;;;7.86;74.99
33075;BME280;19433;51.292;6.868;2022-11-13T02:51:23;101384.91;;;7.93;74.99
33075;BME280;19433;51.292;6.868;2022-11-13T02:53:49;101375.59;;;7.86;74.52
33075;BME280;19433;51.292;6.868;2022-11-13T02:56:14;101375.72;;;7.76;75.13
33075;BME280;19433;51.292;6.868;2022-11-13T02:58:40;101382.94;;;7.78;75.09
33075;BME280;19433;51.292;6.868;2022-11-13T03:01:05;101386.03;;;7.49;76.91
33075;BME280;19433;51.292;6.868;2022-11-13T03:03:30;101390.19;;;7.53;76.30
33075;BME280;19433;51.292;6.868;2022-11-13T03:05:55;101381.78;;;7.28;77.37
33075;BME280;19433;51.292;6.868;2022-11-13T03:08:22;101378.09;;;7.20;77.50
33075;BME280;19433;51.292;6.868;2022-11-13T03:10:52;101378.97;;;7.20;77.44
33075;BME280;19433;51.292;6.868;2022-11-13T03:13:18;101370.78;;;7.02;79.20
33075;BME280;19433;51.292;6.868;2022-11-13T03:15:44;101366.81;;;7.05;77.79
33075;BME280;19433;51.292;6.868;2022-11-13T03:18:10;101375.13;;;7.13;77.75
33075;BME280;19433;51.292;6.868;2022-11-13T03:20:37;101372.81;;;7.00;77.65
33075;BME280;19433;51.292;6.868;2022-11-13T03:23:03;101372.53;;;6.86;79.12
33075;BME280;19433;51.292;6.868;2022-11-13T03:25:28;101371.72;;;6.76;80.30
33075;BME280;19433;51.292;6.868;2022-11-13T03:27:54;101360.81;;;6.48;83.72
33075;BME280;19433;51.292;6.868;2022-11-13T03:30:19;101364.97;;;6.34;84.22
33075;BME280;19433;51.292;6.868;2022-11-13T03:32:44;101348.59;;;6.25;84.95
33075;BME280;19433;51.292;6.868;2022-11-13T03:35:10;101358.44;;;6.18;85.27
33075;BME280;19433;51.292;6.868;2022-11-13T03:37:35;101366.91;;;6.07;85.92
33075;BME280;19433;51.292;6.868;2022-11-13T03:40:00;101354.09;;;5.97;87.09
33075;BME280;19433;51.292;6.868;2022-11-13T03:42:26;101361.63;;;5.86;88.71
33075;BME280;19433;51.292;6.868;2022-11-13T03:44:51;101344.88;;;5.61;89.60
33075;BME280;19433;51.292;6.868;2022-11-13T03:47:16;101359.94;;;5.48;91.49
33075;BME280;19433;51.292;6.868;2022-11-13T03:49:42;101354.06;;;5.33;92.24
33075;BME280;19433;51.292;6.868;2022-11-13T03:52:07;101351.19;;;5.25;93.47
33075;BME280;19433;51.292;6.868;2022-11-13T03:54:32;101339.66;;;5.21;93.49
33075;BME280;19433;51.292;6.868;2022-11-13T03:56:57;101349.38;;;5.16;94.04
33075;BME280;19433;51.292;6.868;2022-11-13T03:59:23;101334.66;;;5.17;93.19
33075;BME280;19433;51.292;6.868;2022-11-13T04:01:48;101332.22;;;5.14;92.43
33075;BME280;19433;51.292;6.868;2022-11-13T04:04:14;101341.53;;;5.21;91.08
33075;BME280;19433;51.292;6.868;2022-11-13T04:06:40;101333.19;;;5.22;89.52
33075;BME280;19433;51.292;6.868;2022-11-13T04:09:05;101333.78;;;5.16;90.69
33075;BME280;19433;51.292;6.868;2022-11-13T04:11:31;101331.06;;;5.16;88.74
33075;BME280;19433;51.292;6.868;2022-11-13T04:13:56;101323.84;;;5.06;89.70
33075;BME280;19433;51.292;6.868;2022-11-13T04:16:21;101330.66;;;5.02;90.11
33075;BME280;19433;51.292;6.868;2022-11-13T04:18:46;101331.97;;;4.98;90.66
33075;BME280;19433;51.292;6.868;2022-11-13T04:21:12;101330.53;;;4.93;91.16
33075;BME280;19433;51.292;6.868;2022-11-13T04:23:37;101338.47;;;4.87;91.17
33075;BME280;19433;51.292;6.868;2022-11-13T04:26:04;101320.34;;;4.67;92.21
33075;BME280;19433;51.292;6.868;2022-11-13T04:28:29;101328.13;;;4.71;91.03
33075;BME280;19433;51.292;6.868;2022-11-13T04:30:55;101323.56;;;5.09;85.15
33075;BME280;19433;51.292;6.868;2022-11-13T04:33:20;101325.97;;;5.21;84.25
33075;BME280;19433;51.292;6.868;2022-11-13T04:35:45;101314.00;;;5.32;82.79
33075;BME280;19433;51.292;6.868;2022-11-13T04:38:12;101313.50;;;5.46;82.01
33075;BME280;19433;51.292;6.868;2022-11-13T04:40:39;101307.53;;;5.51;82.09
33075;BME280;19433;51.292;6.868;2022-11-13T04:43:04;101313.06;;;5.78;81.11
33075;BME280;19433;51.292;6.868;2022-11-13T04:45:30;101312.28;;;5.86;80.72
33075;BME280;19433;51.292;6.868;2022-11-13T04:47:55;101305.78;;;5.87;80.80
33075;BME280;19433;51.292;6.868;2022-11-13T04:50:21;101306.06;;;5.93;80.28
33075;BME280;19433;51.292;6.868;2022-11-13T04:52:46;101313.59;;;5.91;80.81
33075;BME280;19433;51.292;6.868;2022-11-13T04:55:12;101315.31;;;5.83;81.45
33075;BME280;19433;51.292;6.868;2022-11-13T04:57:37;101319.63;;;5.85;81.30
33075;BME280;19433;51.292;6.868;2022-11-13T05:00:04;101295.78;;;5.68;81.60
33075;BME280;19433;51.292;6.868;2022-11-13T05:02:30;101312.56;;;5.65;82.13
33075;BME280;19433;51.292;6.868;2022-11-13T05:04:55;101313.81;;;5.71;82.21
33075;BME280;19433;51.292;6.868;2022-11-13T05:07:21;101319.69;;;5.76;82.23
33075;BME280;19433;51.292;6.868;2022-11-13T05:09:47;101311.56;;;5.84;81.46
33075;BME280;19433;51.292;6.868;2022-11-13T05:12:12;101305.84;;;5.77;81.47
33075;BME280;19433;51.292;6.868;2022-11-13T05:14:38;101307.09;;;5.83;81.31
33075;BME280;19433;51.292;6.868;2022-11-13T05:17:05;101298.47;;;5.50;82.36
33075;BME280;19433;51.292;6.868;2022-11-13T05:19:34;101298.22;;;5.71;81.85
33075;BME280;19433;51.292;6.868;2022-11-13T05:21:59;101294.66;;;5.61;81.39
33075;BME280;19433;51.292;6.868;2022-11-13T05:24:25;101296.03;;;5.47;82.14
33075;BME280;19433;51.292;6.868;2022-11-13T05:26:50;101299.88;;;5.54;81.65
33075;BME280;19433;51.292;6.868;2022-11-13T05:29:16;101296.19;;;5.46;81.84
33075;BME280;19433;51.292;6.868;2022-11-13T05:31:41;101294.53;;;5.25;82.64
33075;BME280;19433;51.292;6.868;2022-11-13T05:34:07;101288.47;;;5.22;82.60
33075;BME280;19433;51.292;6.868;2022-11-13T05:36:33;101280.34;;;5.40;81.44
33075;BME280;19433;51.292;6.868;2022-11-13T05:38:58;101284.44;;;5.63;80.50
33075;BME280;19433;51.292;6.868;2022-11-13T05:41:24;101280.56;;;5.56;79.96
33075;BME280;19433;51.292;6.868;2022-11-13T05:43:49;101281.69;;;5.63;79.25
33075;BME280;19433;51.292;6.868;2022-11-13T05:46:19;101277.50;;;5.59;78.90
33075;BME280;19433;51.292;6.868;2022-11-13T05:48:46;101265.06;;;5.37;80.11
33075;BME280;19433;51.292;6.868;2022-11-13T05:51:17;101269.38;;;5.40;80.21
33075;BME280;19433;51.292;6.868;2022-11-13T05:53:43;101262.09;;;5.21;81.02
33075;BME280;19433;51.292;6.868;2022-11-13T05:56:14;101257.41;;;5.13;82.87
33075;BME280;19433;51.292;6.868;2022-11-13T05:58:41;101256.72;;;5.02;83.26
33075;BME280;19433;51.292;6.868;2022-11-13T06:01:34;101260.31;;;5.02;83.21
33075;BME280;19433;51.292;6.868;2022-11-13T06:04:00;101255.88;;;4.91;83.05
33075;BME280;19433;51.292;6.868;2022-11-13T06:06:27;101254.03;;;4.82;83.76
33075;BME280;19433;51.292;6.868;2022-11-13T06:08:54;101239.66;;;4.61;85.46
33075;BME280;19433;51.292;6.868;2022-11-13T06:11:22;101239.41;;;4.45;87.01
33075;BME280;19433;51.292;6.868;2022-11-13T06:13:49;101230.81;;;4.20;89.46
33075;BME280;19433;51.292;6.868;2022-11-13T06:16:17;101232.38;;;4.13;90.41
33075;BME280;19433;51.292;6.868;2022-11-13T06:18:44;101224.78;;;4.07;90.84
33075;BME280;19433;51.292;6.868;2022-11-13T06:21:15;101226.78;;;3.86;92.49
33075;BME280;19433;51.292;6.868;2022-11-13T06:23:41;101231.97;;;3.79;94.04
33075;BME280;19433;51.292;6.868;2022-11-13T06:26:07;101232.53;;;3.93;93.95
33075;BME280;19433;51.292;6.868;2022-11-13T06:28:33;101221.44;;;3.65;95.68
33075;BME280;19433;51.292;6.868;2022-11-13T06:31:12;101219.41;;;3.58;96.23
33075;BME280;19433;51.292;6.868;2022-11-13T06:33:40;101218.69;;;3.46;97.61
33075;BME280;19433;51.292;6.868;2022-11-13T06:36:10;101211.16;;;3.29;97.74
33075;BME280;19433;51.292;6.868;2022-11-13T06:38:38;101206.22;;;3.23;97.95
33075;BME280;19433;51.292;6.868;2022-11-13T06:41:06;101202.69;;;3.32;97.36
33075;BME280;19433;51.292;6.868;2022-11-13T06:43:32;101201.69;;;3.33;97.31
33075;BME280;19433;51.292;6.868;2022-11-13T06:45:57;101206.28;;;3.32;97.28
33075;BME280;19433;51.292;6.868;2022-11-13T06:48:23;101201.41;;;3.36;97.38
33075;BME280;19433;51.292;6.868;2022-11-13T06:50:49;101193.91;;;3.28;97.53
33075;BME280;19433;51.292;6.868;2022-11-13T06:53:15;101203.94;;;3.18;98.27
33075;BME280;19433;51.292;6.868;2022-11-13T06:55:46;101205.34;;;3.12;99.10
33075;BME280;19433;51.292;6.868;2022-11-13T06:58:13;101203.88;;;3.08;99.59
33075;BME280;19433;51.292;6.868;2022-11-13T07:00:39;101205.81;;;3.17;99.66
33075;BME280;19433;51.292;6.868;2022-11-13T07:03:04;101212.34;;;3.36;98.98
33075;BME280;19433;51.292;6.868;2022-11-13T07:05:30;101202.56;;;3.33;98.98
33075;BME280;19433;51.292;6.868;2022-11-13T07:07:55;101204.41;;;3.33;99.05
33075;BME280;19433;51.292;6.868;2022-11-13T07:10:20;101200.50;;;3.26;99.39
33075;BME280;19433;51.292;6.868;2022-11-13T07:13:05;101204.75;;;3.49;98.53
33075;BME280;19433;51.292;6.868;2022-11-13T09:15:11;101126.91;;;13.24;54.82
33075;BME280;19433;51.292;6.868;2022-11-13T09:17:36;101136.84;;;12.78;57.08
33075;BME280;19433;51.292;6.868;2022-11-13T09:20:03;101141.34;;;12.08;57.18
33075;BME280;19433;51.292;6.868;2022-11-13T09:22:31;101120.38;;;11.78;58.05
33075;BME280;19433;51.292;6.868;2022-11-13T09:24:56;101125.16;;;11.69;58.54
33075;BME280;19433;51.292;6.868;2022-11-13T09:27:21;101121.78;;;11.88;58.97
33075;BME280;19433;51.292;6.868;2022-11-13T09:29:47;101134.00;;;14.14;52.73
33075;BME280;19433;51.292;6.868;2022-11-13T09:32:12;101139.38;;;18.13;42.18
33075;BME280;19433;51.292;6.868;2022-11-13T09:34:37;101152.09;;;21.53;33.90
33075;BME280;19433;51.292;6.868;2022-11-13T09:37:03;101149.59;;;24.27;29.23
33075;BME280;19433;51.292;6.868;2022-11-13T09:39:28;101166.09;;;26.01;25.99
33075;BME280;19433;51.292;6.868;2022-11-13T09:42:14;101172.03;;;26.98;23.74
33075;BME280;19433;51.292;6.868;2022-11-13T09:44:51;101163.09;;;28.34;23.36
33075;BME280;19433;51.292;6.868;2022-11-13T09:47:22;101167.06;;;29.41;22.43
33075;BME280;19433;51.292;6.868;2022-11-13T09:50:05;101166.06;;;30.05;21.26
33075;BME280;19433;51.292;6.868;2022-11-13T09:52:35;101165.44;;;30.08;21.88
33075;BME280;19433;51.292;6.868;2022-11-13T09:55:01;101158.81;;;28.13;21.82
33075;BME280;19433;51.292;6.868;2022-11-13T09:57:41;101151.91;;;24.86;25.02
33075;BME280;19433;51.292;6.868;2022-11-13T10:00:14;101132.97;;;21.98;27.67
33075;BME280;19433;51.292;6.868;2022-11-13T10:06:01;101117.69;;;17.78;35.17
33075;BME280;19433;51.292;6.868;2022-11-13T10:08:32;101122.16;;;17.49;35.30
33075;BME280;19433;51.292;6.868;2022-11-13T10:11:52;101108.56;;;16.98;36.00
33075;BME280;19433;51.292;6.868;2022-11-13T10:14:35;101113.81;;;16.88;36.43
33075;BME280;19433;51.292;6.868;2022-11-13T10:17:13;101108.00;;;16.90;36.25
33075;BME280;19433;51.292;6.868;2022-11-13T10:22:49;101108.28;;;17.25;35.86
33075;BME280;19433;51.292;6.868;2022-11-13T10:25:18;101086.47;;;17.15;37.51
33075;BME280;19433;51.292;6.868;2022-11-13T10:27:49;101094.31;;;17.06;35.70
33075;BME280;19433;51.292;6.868;2022-11-13T10:30:17;101104.91;;;16.79;36.26
33075;BME280;19433;51.292;6.868;2022-11-13T10:32:44;101095.47;;;16.24;36.76
33075;BME280;19433;51.292;6.868;2022-11-13T10:35:22;101089.16;;;16.10;37.97
33075;BME280;19433;51.292;6.868;2022-11-13T10:40:33;101084.41;;;15.86;39.00
33075;BME280;19433;51.292;6.868;2022-11-13T10:43:17;101084.22;;;15.81;39.90
33075;BME280;19433;51.292;6.868;2022-11-13T10:45:55;101084.00;;;16.14;38.21
33075;BME280;19433;51.292;6.868;2022-11-13T10:48:24;101066.28;;;16.02;38.82
33075;BME280;19433;51.292;6.868;2022-11-13T10:50:59;101068.34;;;15.81;38.64
33075;BME280;19433;51.292;6.868;2022-11-13T10:53:27;101058.41;;;15.92;38.29
33075;BME280;19433;51.292;6.868;2022-11-13T10:55:58;101065.44;;;16.01;36.46
33075;BME280;19433;51.292;6.868;2022-11-13T10:58:24;101062.88;;;16.00;36.76
33075;BME280;19433;51.292;6.868;2022-11-13T11:00:49;101061.63;;;15.96;36.62
33075;BME280;19433;51.292;6.868;2022-11-13T11:03:22;101058.16;;;16.00;36.87
33075;BME280;19433;51.292;6.868;2022-11-13T11:05:59;101054.53;;;15.93;41.34
33075;BME280;19433;51.292;6.868;2022-11-13T11:08:29;101052.53;;;15.75;39.58
33075;BME280;19433;51.292;6.868;2022-11-13T11:11:00;101050.22;;;15.72;40.61
33075;BME280;19433;51.292;6.868;2022-11-13T11:13:44;101049.56;;;15.70;39.88
33075;BME280;19433;51.292;6.868;2022-11-13T11:16:13;101036.09;;;15.67;40.56
33075;BME280;19433;51.292;6.868;2022-11-13T11:18:47;101050.03;;;15.61;39.27
33075;BME280;19433;51.292;6.868;2022-11-13T11:21:20;101043.78;;;15.72;40.33
33075;BME280;19433;51.292;6.868;2022-11-13T11:26:36;101031.31;;;15.74;40.31
33075;BME280;19433;51.292;6.868;2022-11-13T11:29:26;101034.50;;;15.78;40.29
33075;BME280;19433;51.292;6.868;2022-11-13T11:32:00;101029.13;;;15.83;40.19
33075;BME280;19433;51.292;6.868;2022-11-13T11:37:15;101026.88;;;15.98;38.62
33075;BME280;19433;51.292;6.868;2022-11-13T11:40:35;101015.50;;;16.00;40.30
33075;BME280;19433;51.292;6.868;2022-11-13T11:42:40;101014.63;;;15.99;41.22
33075;BME280;19433;51.292;6.868;2022-11-13T11:45:16;100988.81;;;15.86;40.17
33075;BME280;19433;51.292;6.868;2022-11-13T11:47:45;100999.41;;;16.02;41.19
33075;BME280;19433;51.292;6.868;2022-11-13T11:50:16;101004.84;;;15.90;41.08
33075;BME280;19433;51.292;6.868;2022-11-13T11:55:49;100998.66;;;16.13;44.41
33075;BME280;19433;51.292;6.868;2022-11-13T12:01:34;100992.78;;;16.21;46.58
33075;BME280;19433;51.292;6.868;2022-11-13T12:04:13;100986.19;;;16.15;45.47
33075;BME280;19433;51.292;6.868;2022-11-13T12:23:09;100949.66;;;16.24;45.71
33075;BME280;19433;51.292;6.868;2022-11-13T12:25:58;100943.16;;;16.30;46.68
33075;BME280;19433;51.292;6.868;2022-11-13T12:36:19;100925.09;;;16.14;48.04
33075;BME280;19433;51.292;6.868;2022-11-13T12:38:51;100923.00;;;16.09;48.54
33075;BME280;19433;51.292;6.868;2022-11-13T12:41:32;100914.81;;;16.14;48.53
33075;BME280;19433;51.292;6.868;2022-11-13T12:46:46;100914.63;;;16.09;50.65
33075;BME280;19433;51.292;6.868;2022-11-13T12:52:00;100899.75;;;15.97;49.28
33075;BME280;19433;51.292;6.868;2022-11-13T12:54:27;100890.97;;;15.94;49.90
33075;BME280;19433;51.292;6.868;2022-11-13T13:15:36;100868.63;;;16.00;49.95
33075;BME280;19433;51.292;6.868;2022-11-13T13:18:09;100859.00;;;15.78;50.62
33075;BME280;19433;51.292;6.868;2022-11-13T13:20:44;100849.94;;;15.82;50.52
33075;BME280;19433;51.292;6.868;2022-11-13T13:23:12;100849.28;;;15.87;50.13
33075;BME280;19433;51.292;6.868;2022-11-13T13:25:40;100852.66;;;15.71;50.72
33075;BME280;19433;51.292;6.868;2022-11-13T13:30:47;100843.97;;;15.79;51.13
33075;BME280;19433;51.292;6.868;2022-11-13T13:33:31;100836.31;;;15.74;50.27
33075;BME280;19433;51.292;6.868;2022-11-13T13:38:54;100825.78;;;15.52;52.40
33075;BME280;19433;51.292;6.868;2022-11-13T13:41:31;100835.44;;;15.56;52.95
33075;BME280;19433;51.292;6.868;2022-11-13T13:44:08;100817.34;;;15.65;51.27
33075;BME280;19433;51.292;6.868;2022-11-13T13:46:35;100816.09;;;15.61;52.29
33075;BME280;19433;51.292;6.868;2022-11-13T13:49:04;100811.66;;;15.53;52.40
33075;BME280;19433;51.292;6.868;2022-11-13T13:51:42;100805.69;;;15.49;51.08
33075;BME280;19433;51.292;6.868;2022-11-13T13:54:11;100817.03;;;15.48;51.90
33075;BME280;19433;51.292;6.868;2022-11-13T13:56:40;100815.78;;;15.44;51.70
33075;BME280;19433;51.292;6.868;2022-11-13T13:59:17;100807.28;;;15.39;52.02
33075;BME280;19433;51.292;6.868;2022-11-13T14:01:58;100798.88;;;15.21;52.20
33075;BME280;19433;51.292;6.868;2022-11-13T14:04:26;100808.50;;;15.18;52.12
33075;BME280;19433;51.292;6.868;2022-11-13T14:06:59;100799.75;;;15.14;53.25
33075;BME280;19433;51.292;6.868;2022-11-13T14:09:27;100796.81;;;15.09;53.32
33075;BME280;19433;51.292;6.868;2022-11-13T14:11:57;100795.00;;;15.22;51.75
33075;BME280;19433;51.292;6.868;2022-11-13T14:14:23;100792.25;;;15.15;52.28
33075;BME280;19433;51.292;6.868;2022-11-13T14:16:50;100797.59;;;15.17;50.60
33075;BME280;19433;51.292;6.868;2022-11-13T14:19:16;100796.41;;;15.06;51.64
33075;BME280;19433;51.292;6.868;2022-11-13T14:21:43;100787.25;;;14.99;51.44
33075;BME280;19433;51.292;6.868;2022-11-13T14:24:25;100797.31;;;15.00;51.41
33075;BME280;19433;51.292;6.868;2022-11-13T14:26:54;100792.44;;;14.95;52.77
33075;BME280;19433;51.292;6.868;2022-11-13T14:29:31;100787.22;;;14.74;52.32
33075;BME280;19433;51.292;6.868;2022-11-13T14:32:05;100787.44;;;14.72;51.74
33075;BME280;19433;51.292;6.868;2022-11-13T14:34:34;100794.38;;;14.63;52.42
33075;BME280;19433;51.292;6.868;2022-11-13T14:39:51;100778.88;;;14.36;53.34
33075;BME280;19433;51.292;6.868;2022-11-13T14:42:22;100784.84;;;14.39;53.85
33075;BME280;19433;51.292;6.868;2022-11-13T14:44:49;100781.47;;;14.24;54.83
33075;BME280;19433;51.292;6.868;2022-11-13T14:47:27;100776.81;;;14.18;55.71
33075;BME280;19433;51.292;6.868;2022-11-13T14:49:53;100776.22;;;14.09;55.49
33075;BME280;19433;51.292;6.868;2022-11-13T14:52:26;100766.88;;;13.97;57.33
33075;BME280;19433;51.292;6.868;2022-11-13T14:55:00;100762.16;;;13.98;54.78
33075;BME280;19433;51.292;6.868;2022-11-13T14:57:26;100762.59;;;13.95;54.96
33075;BME280;19433;51.292;6.868;2022-11-13T14:59:53;100754.53;;;13.87;55.77
33075;BME280;19433;51.292;6.868;2022-11-13T15:02:18;100763.91;;;13.86;55.31
33075;BME280;19433;51.292;6.868;2022-11-13T15:04:44;100749.19;;;13.79;55.71
33075;BME280;19433;51.292;6.868;2022-11-13T15:09:50;100749.28;;;13.46;58.92
33075;BME280;19433;51.292;6.868;2022-11-13T15:12:16;100743.13;;;13.24;59.93
33075;BME280;19433;51.292;6.868;2022-11-13T15:14:41;100726.06;;;13.14;58.99
33075;BME280;19433;51.292;6.868;2022-11-13T15:17:12;100749.94;;;13.08;61.18
33075;BME280;19433;51.292;6.868;2022-11-13T15:19:41;100746.75;;;12.98;61.36
33075;BME280;19433;51.292;6.868;2022-11-13T15:22:10;100739.25;;;12.72;63.44
33075;BME280;19433;51.292;6.868;2022-11-13T15:24:36;100740.31;;;12.58;63.09
33075;BME280;19433;51.292;6.868;2022-11-13T15:27:02;100735.56;;;12.39;66.76
33075;BME280;19433;51.292;6.868;2022-11-13T15:29:27;100738.13;;;12.27;68.67
33075;BME280;19433;51.292;6.868;2022-11-13T15:31:52;100732.53;;;12.14;68.55
33075;BME280;19433;51.292;6.868;2022-11-13T15:34:20;100722.94;;;12.10;68.00
33075;BME280;19433;51.292;6.868;2022-11-13T15:36:48;100715.19;;;11.85;69.65
33075;BME280;19433;51.292;6.868;2022-11-13T15:39:16;100722.34;;;11.73;70.87
33075;BME280;19433;51.292;6.868;2022-11-13T15:41:42;100716.91;;;11.45;72.53
33075;BME280;19433;51.292;6.868;2022-11-13T15:44:12;100719.56;;;11.32;74.35
33075;BME280;19433;51.292;6.868;2022-11-13T15:46:38;100711.56;;;11.09;74.61
33075;BME280;19433;51.292;6.868;2022-11-13T15:49:05;100699.09;;;10.92;75.96
33075;BME280;19433;51.292;6.868;2022-11-13T16:08:09;100707.13;;;10.38;78.69
33075;BME280;19433;51.292;6.868;2022-11-13T16:24:15;100679.88;;;9.41;83.75
33075;BME280;19433;51.292;6.868;2022-11-13T16:26:45;100673.81;;;9.31;83.35
33075;BME280;19433;51.292;6.868;2022-11-13T16:29:17;100677.50;;;9.24;82.97
33075;BME280;19433;51.292;6.868;2022-11-13T16:31:43;100662.88;;;9.08;83.59
33075;BME280;19433;51.292;6.868;2022-11-13T16:34:08;100669.53;;;9.14;82.68
33075;BME280;19433;51.292;6.868;2022-11-13T16:36:34;100666.06;;;9.41;79.51
33075;BME280;19433;51.292;6.868;2022-11-13T16:38:59;100663.88;;;9.51;79.58
33075;BME280;19433;51.292;6.868;2022-11-13T16:41:24;100663.16;;;9.64;78.01
33075;BME280;19433;51.292;6.868;2022-11-13T16:43:50;100667.13;;;9.91;76.28
33075;BME280;19433;51.292;6.868;2022-11-13T16:46:25;100665.59;;;9.88;76.85
33075;BME280;19433;51.292;6.868;2022-11-13T16:48:51;100668.94;;;9.84;76.50
33075;BME280;19433;51.292;6.868;2022-11-13T16:51:17;100662.44;;;9.92;75.65
33075;BME280;19433;51.292;6.868;2022-11-13T16:53:42;100657.66;;;9.64;77.52
33075;BME280;19433;51.292;6.868;2022-11-13T16:56:11;100655.69;;;9.58;78.42